Time;durP1;ratioP1;P1;durP2;ratioP2;P2;SDS_P1;SDS_P2;PMS_P1;PMS_P2;Temp;Humidity;BMP_temperature;BMP_pressure;BME280_temperature;BME280_humidity;BME280_pressure;Samples;Min_cycle;Max_cycle;Signal;HPM_P1;HPM_P2
2021/12/24 00:01:11;;;;;;;48.80;17.30;;;6.40;99.90;;;;;;4978082;28;20043;-77
2021/12/24 00:03:38;;;;;;;51.80;17.85;;;6.40;99.90;;;;;;4978479;28;20050;-82
2021/12/24 00:06:06;;;;;;;43.50;16.58;;;6.40;99.90;;;;;;4965051;28;20057;-82
2021/12/24 00:08:32;;;;;;;45.58;16.38;;;6.50;99.90;;;;;;4982453;28;20050;-82
2021/12/24 00:11:00;;;;;;;41.80;14.98;;;6.50;99.90;;;;;;4982341;28;20515;-82
2021/12/24 00:13:27;;;;;;;49.17;16.92;;;6.60;99.90;;;;;;4966658;28;20043;-83
2021/12/24 00:16:02;;;;;;;46.53;15.85;;;6.50;99.90;;;;;;4982141;28;20520;-81
2021/12/24 00:18:37;;;;;;;39.85;15.70;;;6.60;99.90;;;;;;4982056;28;20495;-82
2021/12/24 00:22:20;;;;;;;44.03;16.42;;;6.60;99.90;;;;;;4981922;28;20043;-82
2021/12/24 00:35:14;;;;;;;34.55;14.52;;;6.70;99.90;;;;;;4976474;28;20100;-82
2021/12/24 00:37:43;;;;;;;26.98;11.18;;;6.70;99.90;;;;;;4976213;28;20049;-83
2021/12/24 00:40:17;;;;;;;40.42;14.80;;;6.70;99.90;;;;;;4962606;28;20038;-83
2021/12/24 00:42:45;;;;;;;41.13;14.55;;;6.70;99.90;;;;;;4978560;28;20053;-83
2021/12/24 00:45:13;;;;;;;34.95;13.68;;;6.70;99.90;;;;;;4978917;28;20034;-82
2021/12/24 00:47:39;;;;;;;32.95;13.38;;;6.70;99.90;;;;;;4978492;28;20089;-83
2021/12/24 00:50:08;;;;;;;34.95;13.00;;;6.70;99.90;;;;;;4978949;28;20046;-82
2021/12/24 00:55:12;;;;;;;31.77;13.30;;;6.80;99.90;;;;;;4974366;28;20050;-79
2021/12/24 00:57:49;;;;;;;32.33;13.02;;;6.80;99.90;;;;;;4974197;28;20047;-79
2021/12/24 01:00:19;;;;;;;29.92;13.10;;;6.80;99.90;;;;;;4974149;28;20042;-78
2021/12/24 01:02:46;;;;;;;31.88;13.60;;;6.80;99.90;;;;;;4974136;28;20043;-79
2021/12/24 01:05:13;;;;;;;27.35;12.00;;;6.90;99.90;;;;;;4973726;28;20050;-78
2021/12/24 01:07:39;;;;;;;31.27;12.82;;;6.90;99.90;;;;;;4973934;28;20051;-78
2021/12/24 01:10:08;;;;;;;26.77;12.65;;;6.90;99.90;;;;;;4973879;28;20050;-78
2021/12/24 01:12:33;;;;;;;25.27;11.13;;;6.90;99.90;;;;;;4958103;28;20054;-78
2021/12/24 01:15:00;;;;;;;25.15;11.98;;;6.90;99.90;;;;;;4973709;28;20509;-79
2021/12/24 01:17:38;;;;;;;31.40;13.55;;;7.00;99.90;;;;;;4973472;28;20053;-78
2021/12/24 01:20:20;;;;;;;26.75;11.48;;;7.00;99.90;;;;;;4973787;28;20055;-79
2021/12/24 01:25:35;;;;;;;20.00;10.65;;;7.00;99.90;;;;;;4973400;28;20134;-78
2021/12/24 01:39:08;;;;;;;18.45;8.82;;;7.10;99.90;;;;;;4973385;28;20053;-78
2021/12/24 01:44:25;;;;;;;19.05;9.52;;;7.20;99.90;;;;;;4973205;28;20077;-78
2021/12/24 01:46:51;;;;;;;20.65;10.43;;;7.20;99.90;;;;;;4973235;28;20381;-78
2021/12/24 01:49:16;;;;;;;21.95;10.10;;;7.20;99.90;;;;;;4973456;28;20101;-78
2021/12/24 01:51:42;;;;;;;18.48;8.85;;;7.20;99.90;;;;;;4973421;28;20051;-78
2021/12/24 01:54:10;;;;;;;19.88;9.40;;;7.20;99.90;;;;;;4973122;28;20517;-78
2021/12/24 01:56:36;;;;;;;16.17;7.57;;;7.30;99.90;;;;;;4972647;28;20042;-78
2021/12/24 01:59:02;;;;;;;20.23;10.60;;;7.30;99.90;;;;;;4972898;28;20093;-79
2021/12/24 02:01:28;;;;;;;15.25;8.55;;;7.30;99.90;;;;;;4973076;28;20043;-78
2021/12/24 02:03:53;;;;;;;19.35;8.98;;;7.30;99.90;;;;;;4973109;28;20035;-78
2021/12/24 02:06:20;;;;;;;19.80;9.30;;;7.30;99.90;;;;;;4972624;28;20528;-78
2021/12/24 02:08:45;;;;;;;21.63;9.13;;;7.40;99.90;;;;;;4989092;28;20057;-77
2021/12/24 02:11:11;;;;;;;24.20;9.43;;;7.40;99.90;;;;;;4973079;28;20042;-78
2021/12/24 02:13:39;;;;;;;19.00;8.70;;;7.40;99.90;;;;;;4972750;28;20530;-78
2021/12/24 02:16:16;;;;;;;17.60;8.60;;;7.40;99.90;;;;;;4972404;28;20042;-78
2021/12/24 02:29:39;;;;;;;17.67;8.90;;;7.50;99.90;;;;;;4972470;28;20058;-78
2021/12/24 02:32:05;;;;;;;17.45;8.00;;;7.50;99.90;;;;;;4972357;28;20046;-78
2021/12/24 02:34:31;;;;;;;16.65;8.60;;;7.60;99.90;;;;;;4956507;28;20043;-78
2021/12/24 02:36:56;;;;;;;14.77;7.18;;;7.60;99.90;;;;;;4972064;28;20046;-79
2021/12/24 02:39:22;;;;;;;14.77;8.10;;;7.60;99.90;;;;;;4972282;28;20046;-78
2021/12/24 02:41:48;;;;;;;16.02;8.50;;;7.60;99.90;;;;;;4972727;28;20045;-78
2021/12/24 02:44:13;;;;;;;17.25;8.15;;;7.70;99.90;;;;;;4972234;28;20539;-78
2021/12/24 02:47:06;;;;;;;16.98;9.02;;;7.70;99.90;;;;;;4971803;28;20069;-78
2021/12/24 02:55:11;;;;;;;15.60;7.70;;;7.80;99.90;;;;;;4971310;28;20139;-78
2021/12/24 02:57:38;;;;;;;17.85;8.95;;;7.80;99.90;;;;;;4971837;28;20050;-77
2021/12/24 03:00:15;;;;;;;14.32;7.53;;;7.80;99.90;;;;;;4972204;28;20452;-77
2021/12/24 03:02:44;;;;;;;17.38;8.43;;;7.90;99.90;;;;;;4971962;28;20415;-77
2021/12/24 03:05:11;;;;;;;17.30;8.15;;;7.90;99.90;;;;;;4971655;28;20046;-78
2021/12/24 03:07:36;;;;;;;11.30;6.82;;;8.00;99.90;;;;;;4971886;28;20050;-77
2021/12/24 03:10:04;;;;;;;14.77;7.18;;;8.00;99.90;;;;;;4971808;28;20400;-77
2021/12/24 03:12:30;;;;;;;12.88;6.45;;;8.00;99.90;;;;;;4971830;28;20043;-77
2021/12/24 03:14:56;;;;;;;14.25;6.60;;;8.10;99.90;;;;;;4971830;28;20050;-77
2021/12/24 03:17:24;;;;;;;14.05;6.05;;;8.10;99.90;;;;;;4971804;28;20463;-79
2021/12/24 03:19:52;;;;;;;10.38;5.63;;;8.20;99.90;;;;;;4972263;28;20074;-79
2021/12/24 03:22:47;;;;;;;11.68;5.97;;;8.30;99.90;;;;;;4972631;28;20039;-80
2021/12/24 03:25:14;;;;;;;11.90;5.00;;;8.30;99.90;;;;;;4972043;28;20110;-79
2021/12/24 03:27:40;;;;;;;8.93;4.50;;;8.20;99.90;;;;;;4972773;28;20047;-79
2021/12/24 03:30:06;;;;;;;13.10;5.32;;;8.30;99.90;;;;;;4972370;28;20117;-78
2021/12/24 03:32:32;;;;;;;9.88;4.68;;;8.30;99.90;;;;;;4955549;28;20471;-78
2021/12/24 03:34:58;;;;;;;10.23;4.53;;;8.30;99.90;;;;;;4971683;28;20081;-78
2021/12/24 03:37:23;;;;;;;6.70;3.65;;;8.30;99.90;;;;;;4971455;28;20125;-78
2021/12/24 03:39:49;;;;;;;10.20;4.32;;;8.30;99.90;;;;;;4971750;28;20042;-78
2021/12/24 03:42:15;;;;;;;9.98;4.63;;;8.30;99.90;;;;;;4971720;28;20098;-78
2021/12/24 03:44:51;;;;;;;9.60;5.38;;;8.40;99.90;;;;;;4971418;28;20451;-78
2021/12/24 03:47:19;;;;;;;12.05;6.18;;;8.30;99.90;;;;;;4971072;28;20054;-79
2021/12/24 03:54:55;;;;;;;13.77;6.75;;;8.50;99.90;;;;;;4971920;28;20135;-83
2021/12/24 03:57:21;;;;;;;18.50;7.93;;;8.40;99.90;;;;;;4973462;28;20126;-82
2021/12/24 03:59:47;;;;;;;18.98;8.77;;;8.40;99.90;;;;;;4976124;28;20069;-82
2021/12/24 04:02:12;;;;;;;19.75;9.48;;;8.40;99.90;;;;;;4975792;28;20049;-82
2021/12/24 04:04:38;;;;;;;17.88;9.32;;;8.40;99.90;;;;;;4975331;28;20045;-82
2021/12/24 04:07:04;;;;;;;23.35;10.32;;;8.50;99.90;;;;;;4976323;28;20051;-83
2021/12/24 04:09:31;;;;;;;23.73;10.63;;;8.50;99.90;;;;;;4978635;28;20038;-82
2021/12/24 04:11:56;;;;;;;27.45;11.63;;;8.50;99.90;;;;;;4963441;28;20050;-82
2021/12/24 04:14:22;;;;;;;28.10;11.15;;;8.50;99.90;;;;;;4977791;28;20491;-82
2021/12/24 04:16:48;;;;;;;26.30;12.60;;;8.50;99.90;;;;;;4978014;28;20510;-77
2021/12/24 04:24:50;;;;;;;30.13;11.68;;;8.40;99.90;;;;;;4974679;28;20046;-77
2021/12/24 04:24:56;;;;;;;23.02;11.55;;;8.40;99.90;;;;;;4974948;28;20090;-77
2021/12/24 04:27:27;;;;;;;26.10;11.65;;;8.40;99.90;;;;;;4974025;28;20086;-77
2021/12/24 04:30:00;;;;;;;30.08;11.52;;;8.40;99.90;;;;;;4974643;28;20058;-77
2021/12/24 04:32:36;;;;;;;23.92;11.00;;;8.40;99.90;;;;;;4974723;28;20503;-78
2021/12/24 04:35:17;;;;;;;23.45;11.02;;;8.40;99.90;;;;;;4974689;28;20050;-77
2021/12/24 04:38:01;;;;;;;29.27;11.40;;;8.50;99.90;;;;;;4973875;28;20488;-76
2021/12/24 04:51:26;;;;;;;15.10;7.55;;;8.40;99.90;;;;;;4974951;28;20419;-79
2021/12/24 05:04:45;;;;;;;26.60;11.15;;;8.40;99.90;;;;;;4975436;28;20053;-79
2021/12/24 05:07:32;;;;;;;25.83;10.85;;;8.40;99.90;;;;;;4975814;28;20126;-80
2021/12/24 05:09:57;;;;;;;28.27;11.82;;;8.40;99.90;;;;;;4974168;28;20058;-78
2021/12/24 05:12:22;;;;;;;20.73;9.40;;;8.40;99.90;;;;;;4974070;28;20095;-77
2021/12/24 05:14:48;;;;;;;27.52;11.40;;;8.50;99.90;;;;;;4972917;28;20042;-77
2021/12/24 05:22:30;;;;;;;28.42;10.68;;;8.40;99.90;;;;;;4973617;28;20070;-77
2021/12/24 05:24:56;;;;;;;18.80;9.00;;;8.40;99.90;;;;;;4973683;28;20043;-77
2021/12/24 05:27:22;;;;;;;23.20;9.05;;;8.40;99.90;;;;;;4973370;28;20046;-77
2021/12/24 05:29:48;;;;;;;31.70;10.90;;;8.40;99.90;;;;;;4974859;28;20042;-77
2021/12/24 05:32:13;;;;;;;22.27;10.43;;;8.40;99.90;;;;;;4972615;28;20046;-77
2021/12/24 05:34:39;;;;;;;22.90;9.32;;;8.40;99.90;;;;;;4973492;28;20047;-79
2021/12/24 05:37:04;;;;;;;25.92;10.93;;;8.40;99.90;;;;;;4973198;28;20050;-77
2021/12/24 05:39:30;;;;;;;30.35;12.10;;;8.40;99.90;;;;;;4973373;28;20126;-77
2021/12/24 05:41:56;;;;;;;34.20;10.93;;;8.40;99.90;;;;;;4973389;28;20130;-77
2021/12/24 05:44:21;;;;;;;33.65;10.88;;;8.40;99.90;;;;;;4973129;28;20043;-78
2021/12/24 05:46:47;;;;;;;25.98;8.93;;;8.50;99.90;;;;;;4972964;28;20054;-78
2021/12/24 05:49:14;;;;;;;24.38;10.85;;;8.40;99.90;;;;;;4972772;28;20050;-77
2021/12/24 05:51:40;;;;;;;32.33;11.50;;;8.40;99.90;;;;;;4973054;28;20054;-77
2021/12/24 05:54:06;;;;;;;24.90;9.27;;;8.40;99.90;;;;;;4973518;28;20491;-79
2021/12/24 05:56:31;;;;;;;36.50;11.30;;;8.40;99.90;;;;;;4972756;28;20053;-78
2021/12/24 05:58:57;;;;;;;28.50;11.63;;;8.40;99.90;;;;;;4973417;28;20046;-79
2021/12/24 06:01:23;;;;;;;21.05;9.38;;;8.40;99.90;;;;;;4973002;28;20051;-78
2021/12/24 06:03:49;;;;;;;28.70;10.40;;;8.40;99.90;;;;;;4972936;28;20046;-78
2021/12/24 06:06:15;;;;;;;25.30;9.75;;;8.40;99.90;;;;;;4972587;28;20046;-78
2021/12/24 06:08:40;;;;;;;22.92;8.48;;;8.40;99.90;;;;;;4972207;28;20042;-78
2021/12/24 06:11:06;;;;;;;21.33;8.98;;;8.40;99.90;;;;;;4973094;28;20407;-78
2021/12/24 06:13:33;;;;;;;29.30;10.45;;;8.40;99.90;;;;;;4971960;28;20046;-78
2021/12/24 06:15:58;;;;;;;24.10;9.98;;;8.40;99.90;;;;;;4972542;28;20455;-78
2021/12/24 06:20:50;;;;;;;29.30;9.75;;;8.40;99.90;;;;;;4972689;28;20571;-77
2021/12/24 06:23:18;;;;;;;25.80;8.18;;;8.30;99.90;;;;;;4972765;28;20049;-78
2021/12/24 06:25:44;;;;;;;27.75;8.43;;;8.40;99.90;;;;;;4971305;28;20047;-77
2021/12/24 06:28:09;;;;;;;20.60;8.65;;;8.30;99.90;;;;;;4972667;28;20408;-77
2021/12/24 06:30:37;;;;;;;22.75;7.60;;;8.30;99.90;;;;;;4976610;28;20054;-82
2021/12/24 06:33:03;;;;;;;25.02;8.05;;;8.30;99.90;;;;;;4975437;28;20038;-80
2021/12/24 06:35:28;;;;;;;25.60;8.25;;;8.30;99.90;;;;;;4973554;28;20077;-83
2021/12/24 06:37:56;;;;;;;20.50;8.48;;;8.30;99.90;;;;;;4956890;28;20041;-83
2021/12/24 06:40:22;;;;;;;25.40;7.95;;;8.30;99.90;;;;;;4956802;28;20031;-82
2021/12/24 06:42:48;;;;;;;17.13;7.65;;;8.30;99.90;;;;;;4974897;28;20043;-83
2021/12/24 06:45:15;;;;;;;23.98;7.72;;;8.30;99.90;;;;;;4974359;28;20053;-83
2021/12/24 06:47:40;;;;;;;24.05;7.38;;;8.30;99.90;;;;;;4957756;28;20097;-83
2021/12/24 06:50:06;;;;;;;20.42;7.72;;;8.30;99.90;;;;;;4973891;28;20499;-83
2021/12/24 06:52:32;;;;;;;28.38;8.30;;;8.30;99.90;;;;;;4973660;28;20039;-84
2021/12/24 06:54:57;;;;;;;21.70;8.02;;;8.30;99.90;;;;;;4959089;28;20054;-83
2021/12/24 06:57:25;;;;;;;30.33;7.95;;;8.30;99.90;;;;;;4973159;28;20097;-84
2021/12/24 06:59:51;;;;;;;25.88;6.82;;;8.30;99.90;;;;;;4973020;28;20046;-84
2021/12/24 07:02:16;;;;;;;22.08;7.20;;;8.30;99.90;;;;;;4974518;28;20440;-83
2021/12/24 07:04:42;;;;;;;17.90;6.55;;;8.20;99.90;;;;;;4973897;28;20031;-83
2021/12/24 07:07:08;;;;;;;19.48;6.57;;;8.30;99.90;;;;;;4956870;28;20050;-80
2021/12/24 07:09:34;;;;;;;22.25;6.88;;;8.20;99.90;;;;;;4973589;28;20464;-80
2021/12/24 07:11:59;;;;;;;18.25;6.35;;;8.30;99.90;;;;;;4974133;28;20452;-80
2021/12/24 07:14:25;;;;;;;16.15;4.82;;;8.30;99.90;;;;;;4958100;28;20042;-80
2021/12/24 07:16:51;;;;;;;17.35;6.22;;;8.30;99.90;;;;;;4973356;28;20050;-80
2021/12/24 07:19:16;;;;;;;25.20;7.38;;;8.20;99.90;;;;;;4973977;28;20105;-80
2021/12/24 07:21:42;;;;;;;17.48;5.25;;;8.20;99.90;;;;;;4973967;28;20407;-80
2021/12/24 07:24:09;;;;;;;18.13;6.35;;;8.20;99.90;;;;;;4973170;28;20061;-80
2021/12/24 07:26:35;;;;;;;19.42;5.50;;;8.20;99.90;;;;;;4972641;28;20535;-80
2021/12/24 07:29:01;;;;;;;20.33;7.70;;;8.20;99.90;;;;;;4956552;28;20066;-80
2021/12/24 07:31:26;;;;;;;24.85;6.07;;;8.20;99.90;;;;;;4976386;28;20042;-80
2021/12/24 07:33:52;;;;;;;21.77;6.93;;;8.20;99.90;;;;;;4978611;28;20181;-82
2021/12/24 07:36:18;;;;;;;18.10;5.65;;;8.20;99.90;;;;;;4980594;28;20049;-82
2021/12/24 07:38:43;;;;;;;21.65;5.38;;;8.20;99.90;;;;;;4964669;28;20043;-82
2021/12/24 07:41:09;;;;;;;15.60;4.82;;;8.20;99.90;;;;;;4974458;28;20464;-84
2021/12/24 07:43:34;;;;;;;16.58;6.00;;;8.20;99.90;;;;;;4976305;28;20066;-80
2021/12/24 07:46:00;;;;;;;19.35;5.57;;;8.20;99.90;;;;;;4977735;28;20047;-80
2021/12/24 07:48:31;;;;;;;23.83;6.45;;;8.20;99.90;;;;;;4964986;28;20086;-81
2021/12/24 07:53:25;;;;;;;23.48;5.15;;;8.10;99.90;;;;;;4983469;28;20047;-81
2021/12/24 07:55:54;;;;;;;21.88;5.35;;;8.10;99.90;;;;;;4979739;28;20100;-79
2021/12/24 07:58:20;;;;;;;14.35;4.95;;;8.10;99.90;;;;;;4975435;28;20046;-78
2021/12/24 08:00:46;;;;;;;21.70;7.32;;;8.20;99.90;;;;;;4976344;28;20046;-79
2021/12/24 08:03:12;;;;;;;21.10;5.32;;;8.10;99.90;;;;;;4960486;28;20045;-78
2021/12/24 08:05:40;;;;;;;14.23;4.25;;;8.10;99.90;;;;;;4977470;28;20034;-79
2021/12/24 08:08:07;;;;;;;12.52;4.95;;;8.10;99.90;;;;;;4976525;28;20109;-78
2021/12/24 08:10:34;;;;;;;15.88;5.55;;;8.10;99.90;;;;;;4975921;28;20046;-79
2021/12/24 08:13:01;;;;;;;21.55;6.22;;;8.10;99.90;;;;;;4976051;28;20039;-79
2021/12/24 08:15:27;;;;;;;19.13;5.65;;;8.10;99.90;;;;;;4975986;28;20092;-82
2021/12/24 08:17:53;;;;;;;19.05;5.68;;;8.10;99.90;;;;;;4976680;28;20461;-79
2021/12/24 08:20:23;;;;;;;18.63;5.85;;;8.10;99.90;;;;;;4976577;28;20043;-80
2021/12/24 08:22:50;;;;;;;16.85;6.57;;;8.10;99.90;;;;;;4978397;28;20038;-80
2021/12/24 08:25:17;;;;;;;17.85;5.38;;;8.10;99.90;;;;;;4977008;28;20046;-81
2021/12/24 08:27:43;;;;;;;22.48;5.72;;;8.20;99.90;;;;;;4977674;28;20059;-80
2021/12/24 08:30:09;;;;;;;23.17;5.72;;;8.10;99.90;;;;;;4961785;28;20512;-81
2021/12/24 08:32:39;;;;;;;21.10;6.22;;;8.20;99.90;;;;;;4978984;28;20504;-80
2021/12/24 08:35:14;;;;;;;18.15;6.78;;;8.20;99.90;;;;;;4977204;28;20148;-81
2021/12/24 08:37:41;;;;;;;14.10;5.57;;;8.10;99.90;;;;;;4978072;28;20049;-81
2021/12/24 08:40:07;;;;;;;17.52;5.68;;;8.10;99.90;;;;;;4977438;28;20053;-81
2021/12/24 08:42:33;;;;;;;18.90;5.00;;;8.20;99.90;;;;;;4977444;28;20038;-80
2021/12/24 08:44:59;;;;;;;20.80;5.07;;;8.10;99.90;;;;;;4977223;28;20105;-80
2021/12/24 08:47:25;;;;;;;15.90;4.47;;;8.20;99.90;;;;;;4977270;28;20054;-81
2021/12/24 08:49:50;;;;;;;19.48;4.47;;;8.10;99.90;;;;;;4977499;28;20039;-80
2021/12/24 08:52:16;;;;;;;16.90;5.22;;;8.20;99.90;;;;;;4978042;28;20385;-82
2021/12/24 08:54:42;;;;;;;18.17;5.05;;;8.10;99.90;;;;;;4976696;28;20066;-80
2021/12/24 08:57:08;;;;;;;24.30;6.10;;;8.20;99.90;;;;;;4977114;28;20415;-81
2021/12/24 08:59:33;;;;;;;23.23;5.10;;;8.20;99.90;;;;;;4975937;28;20169;-80
2021/12/24 09:02:01;;;;;;;20.92;6.43;;;8.10;99.90;;;;;;4977051;28;20114;-81
2021/12/24 09:04:27;;;;;;;14.43;5.43;;;8.10;99.90;;;;;;4976244;28;20069;-81
2021/12/24 09:06:52;;;;;;;17.38;5.82;;;8.10;99.90;;;;;;4975779;28;20503;-81
2021/12/24 09:09:18;;;;;;;18.70;4.57;;;8.10;99.90;;;;;;4960311;28;20051;-81
2021/12/24 09:11:46;;;;;;;16.48;5.97;;;8.10;99.90;;;;;;4976577;28;20043;-80
2021/12/24 09:14:17;;;;;;;18.25;6.03;;;8.10;99.90;;;;;;4977490;28;20061;-81
2021/12/24 09:16:43;;;;;;;29.58;5.32;;;8.10;99.90;;;;;;4977679;28;20055;-81
2021/12/24 09:19:12;;;;;;;25.27;5.22;;;8.10;99.90;;;;;;4976604;28;20054;-81
2021/12/24 09:21:38;;;;;;;19.85;4.43;;;8.10;99.90;;;;;;4975547;28;20488;-81
2021/12/24 09:24:08;;;;;;;25.92;3.97;;;8.10;99.90;;;;;;4961803;28;20045;-81
2021/12/24 09:26:36;;;;;;;15.43;5.10;;;8.00;99.90;;;;;;4977592;28;20051;-81
2021/12/24 09:29:04;;;;;;;22.90;4.10;;;8.10;99.90;;;;;;4961494;28;20043;-81
2021/12/24 09:31:29;;;;;;;19.23;4.28;;;8.10;99.90;;;;;;4976782;28;20134;-80
2021/12/24 09:33:56;;;;;;;22.52;4.38;;;8.10;99.90;;;;;;4960585;28;20516;-82
2021/12/24 09:36:28;;;;;;;26.45;4.78;;;8.10;99.90;;;;;;4975590;28;20054;-81
2021/12/24 09:38:54;;;;;;;;;;;8.10;99.90;;;;;;4977594;28;20042;-81
2021/12/24 09:41:21;;;;;;;20.67;4.13;;;8.10;99.90;;;;;;4976769;28;19973;-81
2021/12/24 09:43:47;;;;;;;14.68;4.00;;;8.10;99.90;;;;;;4978196;28;20043;-81
2021/12/24 09:46:13;;;;;;;11.77;3.58;;;8.10;99.90;;;;;;4976602;28;20046;-79
2021/12/24 09:48:39;;;;;;;15.68;3.17;;;8.20;99.90;;;;;;4975830;28;20053;-79
2021/12/24 09:51:05;;;;;;;16.92;4.55;;;8.20;99.90;;;;;;4976696;28;20069;-80
2021/12/24 09:53:31;;;;;;;16.08;3.83;;;8.20;99.90;;;;;;4976698;28;20672;-80
2021/12/24 09:55:57;;;;;;;15.02;4.55;;;8.20;99.90;;;;;;4977872;28;20447;-78
2021/12/24 09:58:23;;;;;;;14.05;4.55;;;8.20;99.90;;;;;;4976947;28;20035;-79
2021/12/24 10:00:49;;;;;;;20.42;4.00;;;8.30;99.90;;;;;;4973799;28;20114;-81
2021/12/24 10:03:35;;;;;;;14.57;3.80;;;8.30;99.90;;;;;;4975752;28;20071;-81
2021/12/24 10:06:02;;;;;;;20.48;4.07;;;8.30;99.90;;;;;;4959866;28;20043;-81
2021/12/24 10:08:29;;;;;;;20.05;4.40;;;8.30;99.90;;;;;;4959722;28;20054;-82
2021/12/24 10:11:06;;;;;;;16.98;3.58;;;8.30;99.90;;;;;;4958307;28;20095;-81
2021/12/24 10:13:42;;;;;;;15.07;4.40;;;8.30;99.90;;;;;;4959341;29;20058;-81
2021/12/24 10:16:20;;;;;;;15.00;3.95;;;8.30;99.90;;;;;;4957364;29;20051;-82
2021/12/24 10:18:54;;;;;;;16.80;4.15;;;8.30;99.90;;;;;;4958615;29;20506;-81
2021/12/24 10:21:29;;;;;;;10.18;3.53;;;8.30;99.90;;;;;;4959034;28;20066;-81
2021/12/24 10:24:01;;;;;;;13.68;4.28;;;8.30;99.90;;;;;;4958569;29;20047;-81
2021/12/24 10:26:32;;;;;;;23.33;4.28;;;8.30;99.90;;;;;;4957547;28;20042;-80
2021/12/24 10:29:00;;;;;;;10.60;3.90;;;8.30;99.90;;;;;;4957638;29;20079;-81
2021/12/24 10:31:29;;;;;;;17.60;3.88;;;8.40;99.90;;;;;;4957002;29;20043;-79
2021/12/24 10:34:13;;;;;;;22.13;4.70;;;8.40;99.90;;;;;;4957040;29;20085;-80
2021/12/24 10:36:54;;;;;;;9.68;3.45;;;8.40;99.90;;;;;;4975957;28;20053;-80
2021/12/24 10:39:26;;;;;;;16.20;4.65;;;8.40;99.90;;;;;;4981009;28;20058;-79
2021/12/24 10:41:53;;;;;;;14.70;4.22;;;8.40;99.90;;;;;;4976084;28;20077;-79
2021/12/24 10:44:24;;;;;;;13.90;4.00;;;8.40;99.90;;;;;;4975064;28;20081;-80
2021/12/24 10:47:06;;;;;;;14.65;3.97;;;8.30;99.90;;;;;;4976871;28;20061;-81
2021/12/24 10:49:58;;;;;;;32.05;5.57;;;8.40;99.90;;;;;;4976527;28;20042;-81
2021/12/24 10:55:00;;;;;;;17.83;5.28;;;8.40;99.90;;;;;;4993310;28;20468;-81
2021/12/24 10:57:36;;;;;;;20.77;4.95;;;8.40;99.90;;;;;;4977571;28;20101;-82
2021/12/24 11:00:29;;;;;;;17.88;4.53;;;8.40;99.90;;;;;;4993605;28;20030;-80
2021/12/24 11:03:06;;;;;;;22.83;5.30;;;8.40;99.90;;;;;;4976594;28;20043;-80
2021/12/24 11:05:46;;;;;;;17.77;4.85;;;8.40;99.90;;;;;;4977934;28;20125;-81
2021/12/24 11:08:17;;;;;;;22.83;6.90;;;8.40;99.90;;;;;;4977165;28;20106;-79
2021/12/24 11:10:54;;;;;;;17.60;5.13;;;8.40;99.90;;;;;;4974558;28;20038;-80
2021/12/24 11:13:39;;;;;;;20.77;4.30;;;8.40;99.90;;;;;;4976144;28;20038;-80
2021/12/24 11:16:10;;;;;;;16.38;4.45;;;8.40;99.90;;;;;;4975101;28;20054;-80
2021/12/24 11:18:39;;;;;;;17.52;5.18;;;8.40;99.90;;;;;;4974842;28;20043;-81
2021/12/24 11:21:11;;;;;;;15.40;5.22;;;8.50;99.90;;;;;;4975174;28;20057;-80
2021/12/24 11:23:40;;;;;;;15.55;4.40;;;8.50;99.90;;;;;;4975167;28;20043;-80
2021/12/24 11:26:14;;;;;;;19.75;4.70;;;8.50;99.90;;;;;;4977204;28;20426;-82
2021/12/24 11:28:41;;;;;;;12.30;3.80;;;8.50;99.90;;;;;;4976825;28;20054;-81
2021/12/24 11:31:10;;;;;;;17.05;4.97;;;8.40;99.90;;;;;;4974479;28;20047;-81
2021/12/24 11:33:38;;;;;;;19.60;5.15;;;8.50;99.90;;;;;;4975296;28;20051;-81
2021/12/24 11:36:06;;;;;;;17.75;4.82;;;8.40;99.90;;;;;;4974751;28;20046;-80
2021/12/24 11:38:44;;;;;;;18.75;4.70;;;8.40;99.90;;;;;;4976559;28;20042;-79
2021/12/24 11:41:13;;;;;;;13.82;4.03;;;8.40;99.90;;;;;;4975760;28;20047;-79
2021/12/24 11:43:42;;;;;;;16.40;3.83;;;8.40;99.90;;;;;;4976462;28;20523;-79
2021/12/24 11:46:09;;;;;;;11.02;3.50;;;8.40;99.90;;;;;;4975158;28;20054;-79
2021/12/24 11:48:36;;;;;;;8.88;2.83;;;8.40;99.90;;;;;;4974109;28;20053;-80
2021/12/24 11:51:07;;;;;;;9.90;2.65;;;8.30;99.90;;;;;;4974250;28;20150;-80
2021/12/24 11:53:33;;;;;;;7.32;2.60;;;8.30;99.90;;;;;;4973418;28;20050;-81
2021/12/24 11:56:07;;;;;;;6.65;1.98;;;8.30;99.90;;;;;;4989080;28;20053;-79
2021/12/24 11:58:40;;;;;;;4.03;1.58;;;8.30;99.90;;;;;;4972873;28;20098;-80
2021/12/24 12:01:06;;;;;;;3.80;1.00;;;8.20;99.90;;;;;;4973708;28;20049;-82
2021/12/24 12:03:49;;;;;;;3.55;1.10;;;8.10;99.90;;;;;;4974729;28;20045;-79
2021/12/24 12:06:24;;;;;;;3.28;0.90;;;7.90;99.90;;;;;;4974454;28;20048;-80
2021/12/24 12:08:50;;;;;;;0.85;0.50;;;7.80;99.90;;;;;;4972660;28;20179;-80
2021/12/24 12:11:20;;;;;;;0.73;0.40;;;7.70;99.90;;;;;;4973144;28;20046;-79
2021/12/24 12:13:59;;;;;;;0.80;0.80;;;7.50;99.90;;;;;;4958179;28;20039;-79
2021/12/24 12:16:39;;;;;;;0.50;0.50;;;7.40;99.90;;;;;;4960654;28;20038;-83
2021/12/24 12:19:21;;;;;;;0.60;0.60;;;7.30;99.90;;;;;;4976952;28;20039;-80
2021/12/24 12:22:20;;;;;;;2.72;0.60;;;7.30;99.90;;;;;;4976156;28;20078;-79
2021/12/24 12:24:58;;;;;;;0.80;0.80;;;7.20;99.90;;;;;;4994860;28;20500;-79
2021/12/24 12:27:29;;;;;;;0.90;0.65;;;7.10;99.90;;;;;;4995308;28;20042;-80
2021/12/24 12:29:55;;;;;;;0.85;0.70;;;7.10;99.90;;;;;;5000566;28;20514;-80
2021/12/24 12:32:39;;;;;;;1.10;1.00;;;7.10;99.90;;;;;;5000382;28;20046;-80
2021/12/24 12:35:05;;;;;;;0.82;0.68;;;7.10;99.90;;;;;;4999539;28;20073;-80
2021/12/24 12:37:43;;;;;;;1.25;0.80;;;7.10;99.90;;;;;;4998543;28;20499;-80
2021/12/24 12:40:17;;;;;;;1.00;0.80;;;7.10;99.90;;;;;;4995754;28;20151;-77
2021/12/24 12:42:53;;;;;;;0.95;0.70;;;7.10;99.90;;;;;;4995184;28;20056;-77
2021/12/24 12:45:32;;;;;;;0.95;0.85;;;7.10;99.90;;;;;;4994889;28;20357;-77
2021/12/24 12:48:02;;;;;;;1.73;0.98;;;7.10;99.90;;;;;;4993824;28;20046;-78
2021/12/24 12:50:28;;;;;;;0.93;0.85;;;7.20;99.90;;;;;;4993894;28;20663;-77
2021/12/24 12:53:26;;;;;;;10.50;1.83;;;7.20;99.90;;;;;;4993928;28;20082;-78
2021/12/24 12:56:17;;;;;;;1.08;0.98;;;7.20;99.90;;;;;;4989606;28;20129;-77
2021/12/24 12:59:03;;;;;;;1.02;0.90;;;7.20;99.90;;;;;;4977461;28;20045;-77
2021/12/24 13:01:29;;;;;;;1.85;1.05;;;7.20;99.90;;;;;;4983678;28;20042;-77
2021/12/24 13:03:57;;;;;;;1.35;1.20;;;7.20;99.90;;;;;;4994708;28;20419;-77
2021/12/24 13:06:36;;;;;;;1.60;1.30;;;7.20;99.90;;;;;;4993328;28;20057;-81
2021/12/24 13:09:07;;;;;;;1.08;0.93;;;7.20;99.90;;;;;;4961904;28;20061;-80
2021/12/24 13:11:46;;;;;;;1.40;1.30;;;7.20;99.90;;;;;;4977392;28;20035;-82
2021/12/24 13:14:14;;;;;;;1.75;1.20;;;7.20;99.90;;;;;;4975764;28;20041;-81
2021/12/24 13:16:52;;;;;;;1.23;1.13;;;7.20;99.90;;;;;;4959951;28;20053;-80
2021/12/24 13:24:54;;;;;;;2.38;1.38;;;7.20;99.90;;;;;;4978765;28;20463;-81
2021/12/24 13:27:28;;;;;;;1.48;1.30;;;7.10;99.90;;;;;;4975572;28;20039;-80
2021/12/24 13:30:27;;;;;;;5.45;2.97;;;7.10;99.90;;;;;;4975752;28;20109;-80
2021/12/24 13:32:53;;;;;;;13.82;6.93;;;7.10;99.90;;;;;;4975454;28;20042;-81
2021/12/24 13:35:25;;;;;;;5.88;3.05;;;7.10;99.90;;;;;;4975110;28;20046;-81
2021/12/24 13:37:54;;;;;;;14.80;8.65;;;7.10;99.90;;;;;;4974967;28;20089;-80
2021/12/24 13:40:23;;;;;;;5.68;3.22;;;7.10;99.90;;;;;;4975198;28;20046;-81
2021/12/24 13:42:52;;;;;;;1.60;1.50;;;7.10;99.90;;;;;;4959397;28;20519;-82
2021/12/24 13:45:19;;;;;;;2.58;1.60;;;7.10;99.90;;;;;;4975674;28;20042;-81
2021/12/24 13:48:07;;;;;;;1.58;1.30;;;7.00;99.90;;;;;;4959122;28;20058;-82
2021/12/24 13:56:48;;;;;;;1.40;1.30;;;7.00;99.90;;;;;;4976909;28;20043;-82
2021/12/24 13:59:21;;;;;;;1.48;1.30;;;7.00;99.90;;;;;;4978723;28;20034;-81
2021/12/24 14:01:46;;;;;;;1.90;1.50;;;6.90;99.90;;;;;;4961240;28;20043;-82
2021/12/24 14:04:15;;;;;;;1.95;1.13;;;6.90;99.90;;;;;;4975940;28;20039;-81
2021/12/24 14:06:45;;;;;;;0.82;0.73;;;6.90;99.90;;;;;;4975519;28;20496;-82
2021/12/24 14:09:20;;;;;;;0.70;0.70;;;6.80;99.90;;;;;;4975318;28;20178;-81
2021/12/24 14:11:47;;;;;;;1.10;1.00;;;6.70;99.90;;;;;;4975524;28;20167;-82
2021/12/24 14:14:22;;;;;;;1.10;0.90;;;6.70;99.90;;;;;;4978784;28;20047;-81
2021/12/24 14:17:18;;;;;;;2.25;1.00;;;6.80;99.90;;;;;;4975513;28;20046;-82
2021/12/24 14:19:50;;;;;;;2.00;1.30;;;6.70;99.90;;;;;;4972777;28;20082;-77
2021/12/24 14:22:17;;;;;;;2.10;1.00;;;6.70;99.90;;;;;;4956617;28;20046;-76
2021/12/24 14:24:57;;;;;;;2.65;1.13;;;6.70;99.90;;;;;;4973613;28;20043;-77
2021/12/24 14:27:27;;;;;;;1.50;1.25;;;6.70;99.90;;;;;;4972735;28;20073;-76
2021/12/24 14:29:59;;;;;;;1.65;1.00;;;6.70;99.90;;;;;;4973667;28;20059;-76
2021/12/24 14:32:33;;;;;;;2.42;0.98;;;6.70;99.90;;;;;;4972777;28;20133;-77
2021/12/24 14:35:22;;;;;;;2.10;1.13;;;6.70;99.90;;;;;;4972596;28;20039;-77
2021/12/24 14:38:06;;;;;;;1.00;0.90;;;6.70;99.90;;;;;;4972782;28;20038;-77
2021/12/24 14:40:33;;;;;;;1.25;1.02;;;6.70;99.90;;;;;;4972824;28;20042;-76
2021/12/24 14:43:00;;;;;;;1.55;1.10;;;6.60;99.90;;;;;;4972480;28;20527;-79